sensor_id;sensor_type;location;lat;lon;timestamp;pressure;altitude;pressure_sealevel;temperature
61703;BMP280;47622;47.726;3.298;2023-05-07T00:01:45;98874.56;;;15.68
61703;BMP280;47622;47.726;3.298;2023-05-07T00:04:11;98887.59;;;15.61
61703;BMP280;47622;47.726;3.298;2023-05-07T00:06:36;98889.41;;;15.57
61703;BMP280;47622;47.726;3.298;2023-05-07T00:09:02;98899.13;;;15.53
61703;BMP280;47622;47.726;3.298;2023-05-07T00:11:29;98897.25;;;15.53
61703;BMP280;47622;47.726;3.298;2023-05-07T00:13:54;98904.41;;;15.53
61703;BMP280;47622;47.726;3.298;2023-05-07T00:16:20;98897.50;;;15.48
61703;BMP280;47622;47.726;3.298;2023-05-07T00:18:46;98903.78;;;15.44
61703;BMP280;47622;47.726;3.298;2023-05-07T00:21:11;98894.13;;;15.36
61703;BMP280;47622;47.726;3.298;2023-05-07T00:23:37;98891.97;;;15.25
61703;BMP280;47622;47.726;3.298;2023-05-07T00:26:03;98884.75;;;15.22
61703;BMP280;47622;47.726;3.298;2023-05-07T00:28:29;98885.41;;;15.19
61703;BMP280;47622;47.726;3.298;2023-05-07T00:30:55;98890.94;;;15.14
61703;BMP280;47622;47.726;3.298;2023-05-07T00:33:20;98891.84;;;15.06
61703;BMP280;47622;47.726;3.298;2023-05-07T00:35:47;98914.13;;;14.81
61703;BMP280;47622;47.726;3.298;2023-05-07T00:38:13;98904.47;;;14.73
61703;BMP280;47622;47.726;3.298;2023-05-07T00:40:39;98878.75;;;14.70
61703;BMP280;47622;47.726;3.298;2023-05-07T00:43:06;98890.03;;;14.82
61703;BMP280;47622;47.726;3.298;2023-05-07T00:45:33;98889.16;;;14.90
61703;BMP280;47622;47.726;3.298;2023-05-07T00:48:02;98877.38;;;14.88
61703;BMP280;47622;47.726;3.298;2023-05-07T00:50:28;98871.78;;;14.89
61703;BMP280;47622;47.726;3.298;2023-05-07T00:52:54;98864.59;;;15.02
61703;BMP280;47622;47.726;3.298;2023-05-07T00:55:22;98867.84;;;15.11
61703;BMP280;47622;47.726;3.298;2023-05-07T00:57:48;98882.25;;;15.14
61703;BMP280;47622;47.726;3.298;2023-05-07T01:00:14;98872.03;;;15.12
61703;BMP280;47622;47.726;3.298;2023-05-07T01:02:40;98878.41;;;15.11
61703;BMP280;47622;47.726;3.298;2023-05-07T01:05:08;98874.66;;;15.12
61703;BMP280;47622;47.726;3.298;2023-05-07T01:07:35;98887.63;;;15.17
61703;BMP280;47622;47.726;3.298;2023-05-07T01:10:03;98885.41;;;15.19
61703;BMP280;47622;47.726;3.298;2023-05-07T01:12:30;98894.69;;;15.13
61703;BMP280;47622;47.726;3.298;2023-05-07T01:14:57;98898.66;;;15.07
61703;BMP280;47622;47.726;3.298;2023-05-07T01:17:23;98890.31;;;15.05
61703;BMP280;47622;47.726;3.298;2023-05-07T01:19:48;98891.63;;;14.99
61703;BMP280;47622;47.726;3.298;2023-05-07T01:22:15;98890.97;;;15.02
61703;BMP280;47622;47.726;3.298;2023-05-07T01:24:42;98892.44;;;14.99
61703;BMP280;47622;47.726;3.298;2023-05-07T01:27:08;98882.44;;;14.81
61703;BMP280;47622;47.726;3.298;2023-05-07T01:29:33;98882.91;;;14.71
61703;BMP280;47622;47.726;3.298;2023-05-07T01:32:01;98895.47;;;14.74
61703;BMP280;47622;47.726;3.298;2023-05-07T01:34:30;98889.75;;;14.72
61703;BMP280;47622;47.726;3.298;2023-05-07T01:36:57;98878.75;;;14.70
61703;BMP280;47622;47.726;3.298;2023-05-07T01:39:28;98892.28;;;14.68
61703;BMP280;47622;47.726;3.298;2023-05-07T01:41:58;98889.88;;;14.63
61703;BMP280;47622;47.726;3.298;2023-05-07T01:44:25;98916.78;;;14.56
61703;BMP280;47622;47.726;3.298;2023-05-07T01:46:51;98940.75;;;14.51
61703;BMP280;47622;47.726;3.298;2023-05-07T01:49:17;98945.84;;;14.44
61703;BMP280;47622;47.726;3.298;2023-05-07T01:51:44;98954.88;;;14.43
61703;BMP280;47622;47.726;3.298;2023-05-07T01:54:09;98954.19;;;14.46
61703;BMP280;47622;47.726;3.298;2023-05-07T01:56:36;98947.72;;;14.56
61703;BMP280;47622;47.726;3.298;2023-05-07T01:59:02;98940.56;;;14.68
61703;BMP280;47622;47.726;3.298;2023-05-07T02:01:28;98917.22;;;14.71
61703;BMP280;47622;47.726;3.298;2023-05-07T02:03:53;98905.03;;;14.66
61703;BMP280;47622;47.726;3.298;2023-05-07T02:06:19;98899.75;;;14.66
61703;BMP280;47622;47.726;3.298;2023-05-07T02:08:46;98895.03;;;14.59
61703;BMP280;47622;47.726;3.298;2023-05-07T02:11:12;98904.38;;;14.69
61703;BMP280;47622;47.726;3.298;2023-05-07T02:13:38;98910.63;;;14.77
61703;BMP280;47622;47.726;3.298;2023-05-07T02:16:04;98926.47;;;14.77
61703;BMP280;47622;47.726;3.298;2023-05-07T02:18:29;98939.88;;;14.72
61703;BMP280;47622;47.726;3.298;2023-05-07T02:20:55;98951.22;;;14.72
61703;BMP280;47622;47.726;3.298;2023-05-07T02:23:21;98953.56;;;14.74
61703;BMP280;47622;47.726;3.298;2023-05-07T02:25:47;98962.31;;;14.78
61703;BMP280;47622;47.726;3.298;2023-05-07T02:28:12;98959.25;;;14.76
61703;BMP280;47622;47.726;3.298;2023-05-07T02:30:38;98958.13;;;14.77
61703;BMP280;47622;47.726;3.298;2023-05-07T02:33:05;98949.59;;;14.68
61703;BMP280;47622;47.726;3.298;2023-05-07T02:35:31;98945.41;;;14.66
61703;BMP280;47622;47.726;3.298;2023-05-07T02:37:57;98946.69;;;14.73
61703;BMP280;47622;47.726;3.298;2023-05-07T02:40:22;98948.03;;;14.79
61703;BMP280;47622;47.726;3.298;2023-05-07T02:42:48;98962.19;;;14.86
61703;BMP280;47622;47.726;3.298;2023-05-07T02:45:13;98961.41;;;14.86
61703;BMP280;47622;47.726;3.298;2023-05-07T02:47:39;98967.13;;;14.88
61703;BMP280;47622;47.726;3.298;2023-05-07T02:50:05;98979.69;;;14.91
61703;BMP280;47622;47.726;3.298;2023-05-07T02:52:31;99004.56;;;14.90
61703;BMP280;47622;47.726;3.298;2023-05-07T02:54:57;99016.44;;;14.96
61703;BMP280;47622;47.726;3.298;2023-05-07T02:57:22;99017.53;;;14.95
61703;BMP280;47622;47.726;3.298;2023-05-07T02:59:48;99007.75;;;14.95
61703;BMP280;47622;47.726;3.298;2023-05-07T03:02:13;98997.94;;;14.96
61703;BMP280;47622;47.726;3.298;2023-05-07T03:04:39;98986.69;;;14.99
61703;BMP280;47622;47.726;3.298;2023-05-07T03:07:05;98974.59;;;14.98
61703;BMP280;47622;47.726;3.298;2023-05-07T03:09:31;98970.66;;;14.92
61703;BMP280;47622;47.726;3.298;2023-05-07T03:11:58;98962.31;;;14.90
61703;BMP280;47622;47.726;3.298;2023-05-07T03:14:24;98952.41;;;14.87
61703;BMP280;47622;47.726;3.298;2023-05-07T03:16:50;98957.03;;;14.90
61703;BMP280;47622;47.726;3.298;2023-05-07T03:19:16;98953.69;;;14.93
61703;BMP280;47622;47.726;3.298;2023-05-07T03:21:41;98956.47;;;14.96
61703;BMP280;47622;47.726;3.298;2023-05-07T03:24:07;98958.97;;;14.93
61703;BMP280;47622;47.726;3.298;2023-05-07T03:26:32;98949.53;;;14.92
61703;BMP280;47622;47.726;3.298;2023-05-07T03:28:58;98950.22;;;14.89
61703;BMP280;47622;47.726;3.298;2023-05-07T03:31:24;98946.47;;;14.90
61703;BMP280;47622;47.726;3.298;2023-05-07T03:36:17;98940.28;;;14.86
61703;BMP280;47622;47.726;3.298;2023-05-07T03:38:43;98940.50;;;14.93
61703;BMP280;47622;47.726;3.298;2023-05-07T03:41:08;98927.47;;;14.84
61703;BMP280;47622;47.726;3.298;2023-05-07T03:43:34;98927.09;;;14.86
61703;BMP280;47622;47.726;3.298;2023-05-07T03:45:59;98913.25;;;14.89
61703;BMP280;47622;47.726;3.298;2023-05-07T03:48:25;98916.19;;;14.87
61703;BMP280;47622;47.726;3.298;2023-05-07T03:50:51;98910.16;;;14.87
61703;BMP280;47622;47.726;3.298;2023-05-07T03:53:16;98903.34;;;14.86
61703;BMP280;47622;47.726;3.298;2023-05-07T03:55:42;98908.44;;;14.79
61703;BMP280;47622;47.726;3.298;2023-05-07T03:58:07;98923.94;;;14.68
61703;BMP280;47622;47.726;3.298;2023-05-07T04:00:33;98926.72;;;14.59
61703;BMP280;47622;47.726;3.298;2023-05-07T04:03:03;98925.16;;;14.58
61703;BMP280;47622;47.726;3.298;2023-05-07T04:05:30;98922.84;;;14.45
61703;BMP280;47622;47.726;3.298;2023-05-07T04:07:55;98938.34;;;14.46
61703;BMP280;47622;47.726;3.298;2023-05-07T04:10:21;98928.50;;;14.43
61703;BMP280;47622;47.726;3.298;2023-05-07T04:12:46;98929.81;;;14.37
61703;BMP280;47622;47.726;3.298;2023-05-07T04:15:12;98923.84;;;14.40
61703;BMP280;47622;47.726;3.298;2023-05-07T04:17:38;98918.81;;;14.47
61703;BMP280;47622;47.726;3.298;2023-05-07T04:20:04;98905.38;;;14.28
61703;BMP280;47622;47.726;3.298;2023-05-07T04:22:29;98898.03;;;14.33
61703;BMP280;47622;47.726;3.298;2023-05-07T04:24:55;98907.25;;;14.40
61703;BMP280;47622;47.726;3.298;2023-05-07T04:27:21;98910.44;;;14.45
61703;BMP280;47622;47.726;3.298;2023-05-07T04:29:47;98919.47;;;14.44
61703;BMP280;47622;47.726;3.298;2023-05-07T04:32:13;98933.56;;;14.36
61703;BMP280;47622;47.726;3.298;2023-05-07T04:34:38;98938.59;;;14.29
61703;BMP280;47622;47.726;3.298;2023-05-07T04:37:04;98942.09;;;14.33
61703;BMP280;47622;47.726;3.298;2023-05-07T04:39:29;98953.00;;;14.31
61703;BMP280;47622;47.726;3.298;2023-05-07T04:41:55;98955.28;;;14.33
61703;BMP280;47622;47.726;3.298;2023-05-07T04:44:20;98951.69;;;14.38
61703;BMP280;47622;47.726;3.298;2023-05-07T04:46:46;98953.97;;;14.39
61703;BMP280;47622;47.726;3.298;2023-05-07T04:49:11;98950.22;;;14.40
61703;BMP280;47622;47.726;3.298;2023-05-07T04:51:37;98951.31;;;14.51
61703;BMP280;47622;47.726;3.298;2023-05-07T04:54:03;98963.00;;;14.62
61703;BMP280;47622;47.726;3.298;2023-05-07T04:56:29;98968.81;;;14.56
61703;BMP280;47622;47.726;3.298;2023-05-07T04:58:55;98962.97;;;14.50
61703;BMP280;47622;47.726;3.298;2023-05-07T05:01:21;98979.78;;;14.46
61703;BMP280;47622;47.726;3.298;2023-05-07T05:03:46;98985.84;;;14.46
61703;BMP280;47622;47.726;3.298;2023-05-07T05:06:12;98990.06;;;14.47
61703;BMP280;47622;47.726;3.298;2023-05-07T05:08:37;98994.34;;;14.52
61703;BMP280;47622;47.726;3.298;2023-05-07T05:11:03;99001.25;;;14.56
61703;BMP280;47622;47.726;3.298;2023-05-07T05:13:28;99006.50;;;14.56
61703;BMP280;47622;47.726;3.298;2023-05-07T05:15:54;99006.75;;;14.63
61703;BMP280;47622;47.726;3.298;2023-05-07T05:18:19;99016.91;;;14.74
61703;BMP280;47622;47.726;3.298;2023-05-07T05:20:45;99015.56;;;14.80
61703;BMP280;47622;47.726;3.298;2023-05-07T05:23:11;99025.00;;;14.93
61703;BMP280;47622;47.726;3.298;2023-05-07T05:25:36;99029.63;;;14.96
61703;BMP280;47622;47.726;3.298;2023-05-07T05:28:02;99038.88;;;15.02
61703;BMP280;47622;47.726;3.298;2023-05-07T05:30:28;99037.09;;;14.94
61703;BMP280;47622;47.726;3.298;2023-05-07T05:32:53;99040.59;;;14.98
61703;BMP280;47622;47.726;3.298;2023-05-07T05:35:19;99038.13;;;14.89
61703;BMP280;47622;47.726;3.298;2023-05-07T05:37:46;99036.88;;;14.75
61703;BMP280;47622;47.726;3.298;2023-05-07T05:40:12;99043.63;;;14.84
61703;BMP280;47622;47.726;3.298;2023-05-07T05:42:37;99047.88;;;14.77
61703;BMP280;47622;47.726;3.298;2023-05-07T05:45:03;99046.72;;;14.74
61703;BMP280;47622;47.726;3.298;2023-05-07T05:47:29;99047.66;;;14.70
61703;BMP280;47622;47.726;3.298;2023-05-07T05:49:56;99053.72;;;14.70
61703;BMP280;47622;47.726;3.298;2023-05-07T05:52:21;99058.22;;;14.70
61703;BMP280;47622;47.726;3.298;2023-05-07T05:54:49;99049.22;;;14.58
61703;BMP280;47622;47.726;3.298;2023-05-07T05:57:15;99050.84;;;14.63
61703;BMP280;47622;47.726;3.298;2023-05-07T05:59:41;99056.69;;;14.68
61703;BMP280;47622;47.726;3.298;2023-05-07T06:02:06;99051.41;;;14.68
61703;BMP280;47622;47.726;3.298;2023-05-07T06:04:32;99062.97;;;14.76
61703;BMP280;47622;47.726;3.298;2023-05-07T06:06:57;99059.13;;;14.74
61703;BMP280;47622;47.726;3.298;2023-05-07T06:09:24;99059.53;;;14.63
61703;BMP280;47622;47.726;3.298;2023-05-07T06:11:50;99061.41;;;14.75
61703;BMP280;47622;47.726;3.298;2023-05-07T06:14:16;99058.91;;;14.79
61703;BMP280;47622;47.726;3.298;2023-05-07T06:16:41;99069.34;;;14.87
61703;BMP280;47622;47.726;3.298;2023-05-07T06:19:07;99063.75;;;14.89
61703;BMP280;47622;47.726;3.298;2023-05-07T06:21:32;99066.47;;;15.05
61703;BMP280;47622;47.726;3.298;2023-05-07T06:23:58;99068.34;;;15.16
61703;BMP280;47622;47.726;3.298;2023-05-07T06:26:23;99075.16;;;15.17
61703;BMP280;47622;47.726;3.298;2023-05-07T06:28:49;99071.66;;;15.13
61703;BMP280;47622;47.726;3.298;2023-05-07T06:31:16;99082.31;;;15.17
61703;BMP280;47622;47.726;3.298;2023-05-07T06:33:43;99080.34;;;15.26
61703;BMP280;47622;47.726;3.298;2023-05-07T06:36:09;99076.69;;;15.30
61703;BMP280;47622;47.726;3.298;2023-05-07T06:38:35;99087.25;;;15.30
61703;BMP280;47622;47.726;3.298;2023-05-07T06:41:00;99078.03;;;15.24
61703;BMP280;47622;47.726;3.298;2023-05-07T06:43:26;99086.59;;;15.34
61703;BMP280;47622;47.726;3.298;2023-05-07T06:45:51;99080.66;;;15.37
61703;BMP280;47622;47.726;3.298;2023-05-07T06:48:17;99099.78;;;15.58
61703;BMP280;47622;47.726;3.298;2023-05-07T06:50:42;99094.78;;;15.69
61703;BMP280;47622;47.726;3.298;2023-05-07T06:53:08;99099.31;;;15.56
61703;BMP280;47622;47.726;3.298;2023-05-07T06:55:33;99100.00;;;15.53
61703;BMP280;47622;47.726;3.298;2023-05-07T06:57:59;99101.75;;;15.49
61703;BMP280;47622;47.726;3.298;2023-05-07T07:00:27;99106.41;;;15.27
61703;BMP280;47622;47.726;3.298;2023-05-07T07:02:53;99101.47;;;15.14
61703;BMP280;47622;47.726;3.298;2023-05-07T07:05:19;99106.22;;;15.20
61703;BMP280;47622;47.726;3.298;2023-05-07T07:07:44;99102.91;;;15.23
61703;BMP280;47622;47.726;3.298;2023-05-07T07:10:17;99107.09;;;15.24
61703;BMP280;47622;47.726;3.298;2023-05-07T07:12:43;99094.66;;;15.25
61703;BMP280;47622;47.726;3.298;2023-05-07T07:15:09;99099.56;;;15.39
61703;BMP280;47622;47.726;3.298;2023-05-07T07:17:35;99093.16;;;15.52
61703;BMP280;47622;47.726;3.298;2023-05-07T07:20:02;99097.97;;;15.62
61703;BMP280;47622;47.726;3.298;2023-05-07T07:22:28;99100.41;;;15.55
61703;BMP280;47622;47.726;3.298;2023-05-07T07:24:54;99109.25;;;15.59
61703;BMP280;47622;47.726;3.298;2023-05-07T07:27:19;99106.72;;;15.50
61703;BMP280;47622;47.726;3.298;2023-05-07T07:29:45;99109.00;;;15.64
61703;BMP280;47622;47.726;3.298;2023-05-07T07:32:10;99105.91;;;15.74
61703;BMP280;47622;47.726;3.298;2023-05-07T07:34:36;99118.38;;;15.89
61703;BMP280;47622;47.726;3.298;2023-05-07T07:37:01;99119.47;;;16.01
61703;BMP280;47622;47.726;3.298;2023-05-07T07:39:31;99125.47;;;15.73
61703;BMP280;47622;47.726;3.298;2023-05-07T07:41:56;99113.09;;;15.89
61703;BMP280;47622;47.726;3.298;2023-05-07T07:44:22;99126.28;;;16.02
61703;BMP280;47622;47.726;3.298;2023-05-07T07:46:47;99125.44;;;15.98
61703;BMP280;47622;47.726;3.298;2023-05-07T07:49:13;99128.94;;;15.89
61703;BMP280;47622;47.726;3.298;2023-05-07T07:51:39;99135.19;;;15.81
61703;BMP280;47622;47.726;3.298;2023-05-07T07:54:04;99132.06;;;15.91
61703;BMP280;47622;47.726;3.298;2023-05-07T07:56:32;99136.25;;;15.92
61703;BMP280;47622;47.726;3.298;2023-05-07T07:58:58;99139.81;;;15.72
61703;BMP280;47622;47.726;3.298;2023-05-07T08:01:24;99152.19;;;15.44
61703;BMP280;47622;47.726;3.298;2023-05-07T08:03:51;99147.38;;;15.21
61703;BMP280;47622;47.726;3.298;2023-05-07T08:06:16;99157.03;;;15.42
61703;BMP280;47622;47.726;3.298;2023-05-07T08:08:42;99168.28;;;15.39
61703;BMP280;47622;47.726;3.298;2023-05-07T08:11:07;99165.44;;;15.19
61703;BMP280;47622;47.726;3.298;2023-05-07T08:13:33;99168.09;;;15.32
61703;BMP280;47622;47.726;3.298;2023-05-07T08:15:59;99179.00;;;15.42
61703;BMP280;47622;47.726;3.298;2023-05-07T08:18:25;99179.75;;;15.43
61703;BMP280;47622;47.726;3.298;2023-05-07T08:20:51;99187.78;;;15.58
61703;BMP280;47622;47.726;3.298;2023-05-07T08:23:16;99185.22;;;15.50
61703;BMP280;47622;47.726;3.298;2023-05-07T08:25:42;99189.88;;;15.53
61703;BMP280;47622;47.726;3.298;2023-05-07T08:28:10;99187.00;;;15.58
61703;BMP280;47622;47.726;3.298;2023-05-07T08:30:36;99187.63;;;15.67
61703;BMP280;47622;47.726;3.298;2023-05-07T08:33:01;99191.16;;;15.71
61703;BMP280;47622;47.726;3.298;2023-05-07T08:35:27;99190.03;;;15.84
61703;BMP280;47622;47.726;3.298;2023-05-07T08:37:53;99193.31;;;15.93
61703;BMP280;47622;47.726;3.298;2023-05-07T08:40:21;99208.69;;;16.04
61703;BMP280;47622;47.726;3.298;2023-05-07T08:42:49;99202.84;;;16.10
61703;BMP280;47622;47.726;3.298;2023-05-07T08:45:17;99201.19;;;16.18
61703;BMP280;47622;47.726;3.298;2023-05-07T08:47:47;99208.50;;;16.09
61703;BMP280;47622;47.726;3.298;2023-05-07T08:50:13;99217.09;;;16.06
61703;BMP280;47622;47.726;3.298;2023-05-07T08:52:40;99216.28;;;16.17
61703;BMP280;47622;47.726;3.298;2023-05-07T08:55:07;99220.34;;;16.15
61703;BMP280;47622;47.726;3.298;2023-05-07T08:57:33;99222.13;;;16.23
61703;BMP280;47622;47.726;3.298;2023-05-07T08:59:58;99225.53;;;16.23
61703;BMP280;47622;47.726;3.298;2023-05-07T09:02:25;99221.50;;;16.14
61703;BMP280;47622;47.726;3.298;2023-05-07T09:04:50;99224.53;;;16.16
61703;BMP280;47622;47.726;3.298;2023-05-07T09:07:16;99219.81;;;16.09
61703;BMP280;47622;47.726;3.298;2023-05-07T09:09:44;99225.13;;;16.37
61703;BMP280;47622;47.726;3.298;2023-05-07T09:12:09;99218.41;;;16.00
61703;BMP280;47622;47.726;3.298;2023-05-07T09:14:35;99233.66;;;15.78
61703;BMP280;47622;47.726;3.298;2023-05-07T09:17:01;99234.97;;;15.97
61703;BMP280;47622;47.726;3.298;2023-05-07T09:19:27;99232.50;;;16.04
61703;BMP280;47622;47.726;3.298;2023-05-07T09:22:02;99231.41;;;16.05
61703;BMP280;47622;47.726;3.298;2023-05-07T09:24:28;99242.38;;;15.91
61703;BMP280;47622;47.726;3.298;2023-05-07T09:26:59;99227.91;;;15.88
61703;BMP280;47622;47.726;3.298;2023-05-07T09:29:27;99227.38;;;15.95
61703;BMP280;47622;47.726;3.298;2023-05-07T09:32:06;99241.13;;;15.88
61703;BMP280;47622;47.726;3.298;2023-05-07T09:34:32;99242.94;;;15.84
61703;BMP280;47622;47.726;3.298;2023-05-07T09:37:02;99241.50;;;15.87
61703;BMP280;47622;47.726;3.298;2023-05-07T09:39:49;99242.75;;;16.05
61703;BMP280;47622;47.726;3.298;2023-05-07T09:42:14;99245.84;;;16.19
61703;BMP280;47622;47.726;3.298;2023-05-07T09:44:41;99247.34;;;16.33
61703;BMP280;47622;47.726;3.298;2023-05-07T09:47:08;99246.00;;;16.39
61703;BMP280;47622;47.726;3.298;2023-05-07T09:49:36;99250.72;;;16.45
61703;BMP280;47622;47.726;3.298;2023-05-07T09:52:04;99248.72;;;16.42
61703;BMP280;47622;47.726;3.298;2023-05-07T09:54:32;99249.47;;;16.27
61703;BMP280;47622;47.726;3.298;2023-05-07T09:56:59;99248.59;;;16.23
61703;BMP280;47622;47.726;3.298;2023-05-07T09:59:28;99246.69;;;16.36
61703;BMP280;47622;47.726;3.298;2023-05-07T10:01:57;99246.56;;;16.32
61703;BMP280;47622;47.726;3.298;2023-05-07T10:04:25;99246.56;;;16.32
61703;BMP280;47622;47.726;3.298;2023-05-07T10:06:52;99247.25;;;16.29
61703;BMP280;47622;47.726;3.298;2023-05-07T10:09:19;99249.22;;;16.20
61703;BMP280;47622;47.726;3.298;2023-05-07T10:11:45;99253.31;;;16.30
61703;BMP280;47622;47.726;3.298;2023-05-07T10:14:11;99261.19;;;16.42
61703;BMP280;47622;47.726;3.298;2023-05-07T10:16:37;99255.34;;;16.48
61703;BMP280;47622;47.726;3.298;2023-05-07T10:19:03;99247.50;;;16.68
61703;BMP280;47622;47.726;3.298;2023-05-07T10:21:30;99254.47;;;16.88
61703;BMP280;47622;47.726;3.298;2023-05-07T10:24:20;99263.47;;;17.31
61703;BMP280;47622;47.726;3.298;2023-05-07T10:26:49;99257.50;;;17.69
61703;BMP280;47622;47.726;3.298;2023-05-07T10:29:24;99263.50;;;18.01
61703;BMP280;47622;47.726;3.298;2023-05-07T10:31:57;99258.72;;;18.25
61703;BMP280;47622;47.726;3.298;2023-05-07T10:34:29;99264.16;;;18.75
61703;BMP280;47622;47.726;3.298;2023-05-07T10:36:58;99267.47;;;18.91
61703;BMP280;47622;47.726;3.298;2023-05-07T10:39:23;99273.03;;;18.82
61703;BMP280;47622;47.726;3.298;2023-05-07T10:41:49;99273.50;;;18.88
61703;BMP280;47622;47.726;3.298;2023-05-07T10:44:25;99267.94;;;18.74
61703;BMP280;47622;47.726;3.298;2023-05-07T10:47:12;99270.44;;;18.86
61703;BMP280;47622;47.726;3.298;2023-05-07T10:52:22;99265.69;;;19.21
61703;BMP280;47622;47.726;3.298;2023-05-07T10:57:42;99262.09;;;19.37
61703;BMP280;47622;47.726;3.298;2023-05-07T11:05:28;99257.94;;;19.66
61703;BMP280;47622;47.726;3.298;2023-05-07T11:08:01;99261.63;;;19.54
61703;BMP280;47622;47.726;3.298;2023-05-07T11:10:53;99267.88;;;19.69
61703;BMP280;47622;47.726;3.298;2023-05-07T11:13:47;99253.59;;;19.80
61703;BMP280;47622;47.726;3.298;2023-05-07T11:16:21;99260.00;;;20.06
61703;BMP280;47622;47.726;3.298;2023-05-07T11:18:54;99260.06;;;20.13
61703;BMP280;47622;47.726;3.298;2023-05-07T11:21:38;99258.97;;;20.54
61703;BMP280;47622;47.726;3.298;2023-05-07T11:24:09;99256.81;;;20.71
61703;BMP280;47622;47.726;3.298;2023-05-07T11:26:46;99261.84;;;20.35
61703;BMP280;47622;47.726;3.298;2023-05-07T11:29:22;99255.13;;;20.48
61703;BMP280;47622;47.726;3.298;2023-05-07T11:31:49;99264.59;;;20.83
61703;BMP280;47622;47.726;3.298;2023-05-07T11:34:21;99255.50;;;20.91
61703;BMP280;47622;47.726;3.298;2023-05-07T11:36:47;99266.19;;;20.98
61703;BMP280;47622;47.726;3.298;2023-05-07T11:39:26;99259.53;;;21.25
61703;BMP280;47622;47.726;3.298;2023-05-07T11:41:52;99272.19;;;20.88
61703;BMP280;47622;47.726;3.298;2023-05-07T11:44:17;99260.50;;;21.65
61703;BMP280;47622;47.726;3.298;2023-05-07T11:46:44;99252.69;;;22.79
61703;BMP280;47622;47.726;3.298;2023-05-07T11:49:10;99260.69;;;23.14
61703;BMP280;47622;47.726;3.298;2023-05-07T11:51:36;99262.97;;;22.06
61703;BMP280;47622;47.726;3.298;2023-05-07T11:54:04;99256.91;;;22.37
61703;BMP280;47622;47.726;3.298;2023-05-07T11:56:34;99252.72;;;22.43
61703;BMP280;47622;47.726;3.298;2023-05-07T11:59:01;99250.78;;;22.12
61703;BMP280;47622;47.726;3.298;2023-05-07T12:01:26;99255.06;;;21.44
61703;BMP280;47622;47.726;3.298;2023-05-07T12:03:54;99247.31;;;22.15
61703;BMP280;47622;47.726;3.298;2023-05-07T12:06:20;99249.66;;;22.62
61703;BMP280;47622;47.726;3.298;2023-05-07T12:08:46;99240.13;;;22.68
61703;BMP280;47622;47.726;3.298;2023-05-07T12:11:24;99255.63;;;21.81
61703;BMP280;47622;47.726;3.298;2023-05-07T12:13:51;99249.00;;;21.47
61703;BMP280;47622;47.726;3.298;2023-05-07T12:16:17;99260.22;;;21.12
61703;BMP280;47622;47.726;3.298;2023-05-07T12:18:44;99252.88;;;20.98
61703;BMP280;47622;47.726;3.298;2023-05-07T12:21:09;99255.34;;;20.77
61703;BMP280;47622;47.726;3.298;2023-05-07T12:23:36;99257.72;;;20.85
61703;BMP280;47622;47.726;3.298;2023-05-07T12:26:02;99253.09;;;20.79
61703;BMP280;47622;47.726;3.298;2023-05-07T12:28:28;99246.66;;;20.39
61703;BMP280;47622;47.726;3.298;2023-05-07T12:30:54;99250.97;;;20.17
61703;BMP280;47622;47.726;3.298;2023-05-07T12:33:25;99258.69;;;19.92
61703;BMP280;47622;47.726;3.298;2023-05-07T12:35:53;99250.38;;;20.31
61703;BMP280;47622;47.726;3.298;2023-05-07T12:38:19;99260.16;;;21.08
61703;BMP280;47622;47.726;3.298;2023-05-07T12:40:47;99262.00;;;21.52
61703;BMP280;47622;47.726;3.298;2023-05-07T12:45:43;99256.06;;;22.04
61703;BMP280;47622;47.726;3.298;2023-05-07T12:48:10;99250.78;;;22.19
61703;BMP280;47622;47.726;3.298;2023-05-07T12:50:36;99259.97;;;22.78
61703;BMP280;47622;47.726;3.298;2023-05-07T12:53:06;99258.44;;;23.02
61703;BMP280;47622;47.726;3.298;2023-05-07T12:55:40;99265.22;;;23.31
61703;BMP280;47622;47.726;3.298;2023-05-07T12:58:06;99263.78;;;22.66
61703;BMP280;47622;47.726;3.298;2023-05-07T13:00:34;99262.25;;;22.44
61703;BMP280;47622;47.726;3.298;2023-05-07T13:02:59;99261.41;;;22.04
61703;BMP280;47622;47.726;3.298;2023-05-07T13:05:25;99263.41;;;21.31
61703;BMP280;47622;47.726;3.298;2023-05-07T13:07:54;99261.31;;;20.59
61703;BMP280;47622;47.726;3.298;2023-05-07T13:10:22;99267.94;;;20.36
61703;BMP280;47622;47.726;3.298;2023-05-07T13:12:48;99265.06;;;19.84
61703;BMP280;47622;47.726;3.298;2023-05-07T13:15:14;99261.53;;;20.07
61703;BMP280;47622;47.726;3.298;2023-05-07T13:17:40;99258.06;;;20.36
61703;BMP280;47622;47.726;3.298;2023-05-07T13:20:06;99260.66;;;20.70
61703;BMP280;47622;47.726;3.298;2023-05-07T13:22:33;99268.56;;;21.07
61703;BMP280;47622;47.726;3.298;2023-05-07T13:24:58;99259.00;;;21.64
61703;BMP280;47622;47.726;3.298;2023-05-07T13:27:24;99261.09;;;22.42
61703;BMP280;47622;47.726;3.298;2023-05-07T13:29:50;99274.50;;;23.02
61703;BMP280;47622;47.726;3.298;2023-05-07T13:32:16;99269.44;;;23.39
61703;BMP280;47622;47.726;3.298;2023-05-07T13:34:41;99263.81;;;22.59
61703;BMP280;47622;47.726;3.298;2023-05-07T13:37:07;99263.97;;;21.69
61703;BMP280;47622;47.726;3.298;2023-05-07T13:39:33;99269.22;;;20.96
61703;BMP280;47622;47.726;3.298;2023-05-07T13:41:58;99279.50;;;20.54
61703;BMP280;47622;47.726;3.298;2023-05-07T13:44:24;99271.34;;;20.03
61703;BMP280;47622;47.726;3.298;2023-05-07T13:46:49;99269.31;;;19.89
61703;BMP280;47622;47.726;3.298;2023-05-07T13:49:15;99282.19;;;19.57
61703;BMP280;47622;47.726;3.298;2023-05-07T13:51:40;99275.19;;;19.45
61703;BMP280;47622;47.726;3.298;2023-05-07T13:54:06;99273.38;;;19.26
61703;BMP280;47622;47.726;3.298;2023-05-07T13:56:33;99272.06;;;19.40
61703;BMP280;47622;47.726;3.298;2023-05-07T13:58:59;99271.53;;;19.57
61703;BMP280;47622;47.726;3.298;2023-05-07T14:01:25;99274.34;;;19.98
61703;BMP280;47622;47.726;3.298;2023-05-07T14:03:50;99275.75;;;20.58
61703;BMP280;47622;47.726;3.298;2023-05-07T14:06:16;99271.22;;;20.62
61703;BMP280;47622;47.726;3.298;2023-05-07T14:08:41;99275.72;;;20.51
61703;BMP280;47622;47.726;3.298;2023-05-07T14:11:07;99276.22;;;21.12
61703;BMP280;47622;47.726;3.298;2023-05-07T14:13:32;99274.03;;;21.28
61703;BMP280;47622;47.726;3.298;2023-05-07T14:15:59;99278.56;;;21.20
61703;BMP280;47622;47.726;3.298;2023-05-07T14:18:26;99273.38;;;21.49
61703;BMP280;47622;47.726;3.298;2023-05-07T14:20:55;99278.94;;;21.84
61703;BMP280;47622;47.726;3.298;2023-05-07T14:23:20;99267.16;;;22.07